createdAt,value
2022-10-17T00:02:32.993Z,20.4
2022-10-17T00:08:10.844Z,20.4
2022-10-17T00:13:46.933Z,20.4
2022-10-17T00:19:22.788Z,20.3
2022-10-17T00:24:57.911Z,20.2
2022-10-17T00:30:32.768Z,20.2
2022-10-17T00:36:08.928Z,20.2
2022-10-17T00:42:05.616Z,20.3
2022-10-17T00:47:38.177Z,20.3
2022-10-17T00:53:13.410Z,20.3
2022-10-17T00:58:48.511Z,20.2
2022-10-17T01:04:23.412Z,20.2
2022-10-17T01:09:58.250Z,20.1
2022-10-17T01:15:33.185Z,20.1
2022-10-17T01:21:07.976Z,20.2
2022-10-17T01:26:45.914Z,20.2
2022-10-17T01:32:29.754Z,20.1
2022-10-17T01:38:07.104Z,20.1
2022-10-17T01:44:03.616Z,20.1
2022-10-17T01:49:36.225Z,20
2022-10-17T01:55:11.266Z,19.9
2022-10-17T02:00:46.082Z,19.9
2022-10-17T02:06:22.904Z,19.9
2022-10-17T02:12:06.847Z,20
2022-10-17T02:17:47.666Z,20
2022-10-17T02:23:22.739Z,19.9
2022-10-17T02:28:57.615Z,19.8
2022-10-17T02:34:53.683Z,19.8
2022-10-17T02:40:57.437Z,19.7
2022-10-17T02:46:30.185Z,19.7
2022-10-17T02:52:04.912Z,19.7
2022-10-17T02:57:39.777Z,19.7
2022-10-17T03:03:21.402Z,19.7
2022-10-17T03:10:32.152Z,19.6
2022-10-17T03:16:07.094Z,19.6
2022-10-17T03:21:42.138Z,19.6
2022-10-17T03:27:37.739Z,19.6
2022-10-17T03:33:12.890Z,19.5
2022-10-17T03:38:48.806Z,19.5
2022-10-17T03:45:15.174Z,19.5
2022-10-17T03:50:51.001Z,19.5
2022-10-17T03:56:25.763Z,19.5
2022-10-17T04:02:03.821Z,19.4
2022-10-17T04:07:47.876Z,19.4
2022-10-17T04:13:23.751Z,19.4
2022-10-17T04:18:59.823Z,19.5
2022-10-17T04:24:34.756Z,19.5
2022-10-17T04:30:09.558Z,19.6
2022-10-17T04:36:07.731Z,19.7
2022-10-17T04:42:04.510Z,19.6
2022-10-17T04:47:37.342Z,19.6
2022-10-17T04:53:12.024Z,19.6
2022-10-17T04:58:46.942Z,19.6
2022-10-17T05:04:25.314Z,19.5
2022-10-17T05:12:57.685Z,19.5
2022-10-17T05:18:32.812Z,19.5
2022-10-17T05:24:07.567Z,19.6
2022-10-17T05:29:44.937Z,19.6
2022-10-17T05:35:23.792Z,19.6
2022-10-17T05:41:32.063Z,19.7
2022-10-17T05:47:06.112Z,19.6
2022-10-17T05:52:55.763Z,19.6
2022-10-17T05:58:52.529Z,19.6
2022-10-17T06:04:44.267Z,19.6
2022-10-17T06:10:26.502Z,19.5
2022-10-17T06:16:30.500Z,19.5
2022-10-17T06:22:10.294Z,19.5
2022-10-17T06:27:46.688Z,19.2
2022-10-17T06:33:53.212Z,19.1
2022-10-17T06:39:29.257Z,19
2022-10-17T06:45:07.162Z,18.9
2022-10-17T06:50:47.401Z,18.8
2022-10-17T06:56:40.299Z,18.7
2022-10-17T07:02:15.591Z,18.7
2022-10-17T07:07:52.441Z,18.8
2022-10-17T07:13:38.905Z,18.7
2022-10-17T07:19:25.685Z,18.5
2022-10-17T07:25:18.105Z,18.4
2022-10-17T07:30:53.784Z,18.4
2022-10-17T07:36:30.548Z,18.5
2022-10-17T07:42:27.266Z,18.7
2022-10-17T07:48:01.394Z,18.8
2022-10-17T07:55:08.309Z,18.9
2022-10-17T08:00:48.579Z,18.9
2022-10-17T08:06:27.192Z,18.8
2022-10-17T08:12:04.192Z,19.2
2022-10-17T08:17:42.967Z,19.7
2022-10-17T08:23:17.792Z,19.8
2022-10-17T08:28:55.624Z,19.8
2022-10-17T08:34:31.724Z,19.9
2022-10-17T08:40:16.283Z,19.9
2022-10-17T08:45:51.278Z,19.7
2022-10-17T08:51:35.231Z,19.7
2022-10-17T08:57:11.595Z,20
2022-10-17T09:02:50.286Z,20
2022-10-17T09:08:55.921Z,19.5
2022-10-17T09:14:31.008Z,19.5
2022-10-17T09:20:05.962Z,19.4
2022-10-17T09:25:40.773Z,19.2
2022-10-17T09:31:15.569Z,19.3
2022-10-17T09:36:54.584Z,19.3
2022-10-17T09:42:51.191Z,19.4
2022-10-17T09:48:24.237Z,19.4
2022-10-17T09:54:17.719Z,19.7
2022-10-17T09:59:56.135Z,19.7
2022-10-17T10:05:32.067Z,20.3
2022-10-17T10:11:07.841Z,21.4
2022-10-17T10:16:56.364Z,21.9
2022-10-17T10:22:35.425Z,22.5
2022-10-17T10:28:28.275Z,22.9
2022-10-17T10:34:06.581Z,22.5
2022-10-17T10:39:45.703Z,22.7
2022-10-17T10:45:43.150Z,22.1
2022-10-17T10:51:24.617Z,22.4
2022-10-17T10:56:59.850Z,22.7
2022-10-17T11:02:38.502Z,23.5
2022-10-17T11:08:15.487Z,24
2022-10-17T11:13:53.278Z,24.4
2022-10-17T11:19:29.650Z,25.4
2022-10-17T11:25:05.322Z,26.7
2022-10-17T11:30:40.363Z,25.3
2022-10-17T11:36:16.364Z,25
2022-10-17T11:42:13.093Z,24.3
2022-10-17T11:47:45.965Z,23.7
2022-10-17T11:53:31.250Z,24.3
2022-10-17T11:59:06.575Z,24.6
2022-10-17T12:05:08.786Z,24.9
2022-10-17T12:10:53.146Z,25
2022-10-17T12:16:31.173Z,25.4
2022-10-17T12:22:07.326Z,25.8
2022-10-17T12:27:42.466Z,26.1
2022-10-17T12:33:25.910Z,26.4
2022-10-17T12:39:05.653Z,25.7
2022-10-17T12:44:42.357Z,26.3
2022-10-17T12:50:25.458Z,27
2022-10-17T12:56:01.886Z,27.3
2022-10-17T13:01:43.358Z,27.6
2022-10-17T13:07:39.909Z,28
2022-10-17T13:13:16.121Z,28.5
2022-10-17T13:19:04.984Z,29
2022-10-17T13:24:47.849Z,29.6
2022-10-17T13:30:29.143Z,30
2022-10-17T13:36:09.984Z,30.4
2022-10-17T13:41:55.032Z,29.3
2022-10-17T13:47:35.980Z,29.3
2022-10-17T13:53:13.040Z,30.7
2022-10-17T13:58:49.097Z,32.2
2022-10-17T14:04:27.430Z,35.1
2022-10-17T14:10:02.457Z,32.1
2022-10-17T14:15:38.490Z,30.2
2022-10-17T14:21:37.121Z,28.7
2022-10-17T14:28:12.708Z,27.9
2022-10-17T14:33:49.751Z,30.2
2022-10-17T14:39:26.871Z,30.6
2022-10-17T14:45:05.069Z,29.5
2022-10-17T14:56:21.564Z,27.8
2022-10-17T15:02:03.768Z,27.5
2022-10-17T15:07:47.213Z,27.4
2022-10-17T15:13:48.161Z,29.3
2022-10-17T15:19:44.354Z,28.7
2022-10-17T15:25:28.026Z,28.2
2022-10-17T15:32:33.503Z,27.4
2022-10-17T15:38:10.601Z,26.9
2022-10-17T15:43:54.060Z,26.5
2022-10-17T15:49:28.899Z,26.3
2022-10-17T15:55:24.507Z,26
2022-10-17T16:01:07.286Z,25.8
2022-10-17T16:06:42.812Z,25.5
2022-10-17T16:12:39.536Z,25.2
2022-10-17T16:18:35.013Z,24.9
2022-10-17T16:24:13.177Z,24.7
2022-10-17T16:29:48.655Z,24.5
2022-10-17T16:35:24.163Z,24.3
2022-10-17T16:41:12.510Z,24.2
2022-10-17T16:46:48.864Z,24.1
2022-10-17T16:52:23.517Z,23.6
2022-10-17T16:57:59.543Z,23.3
2022-10-17T17:03:53.705Z,23.3
2022-10-17T17:09:28.482Z,23.2
2022-10-17T17:15:03.424Z,23.1
2022-10-17T17:20:49.685Z,23
2022-10-17T17:26:27.440Z,22.7
2022-10-17T17:32:23.226Z,22.7
2022-10-17T17:37:58.111Z,22.5
2022-10-17T17:43:54.772Z,22.4
2022-10-17T17:49:27.326Z,22.3
2022-10-17T17:55:02.174Z,22.2
2022-10-17T18:00:46.240Z,22.1
2022-10-17T18:06:23.474Z,22.1
2022-10-17T18:11:59.255Z,21.9
2022-10-17T18:17:34.063Z,21.8
2022-10-17T18:23:10.287Z,21.6
2022-10-17T18:28:45.420Z,21.6
2022-10-17T18:34:20.272Z,21.6
2022-10-17T18:39:55.104Z,21.5
2022-10-17T18:45:31.479Z,21.4
2022-10-17T18:51:07.243Z,21.3
2022-10-17T18:56:42.056Z,21.3
2022-10-17T19:02:16.990Z,21.2
2022-10-17T19:07:56.951Z,21.1
2022-10-17T19:13:31.871Z,21.1
2022-10-17T19:19:08.429Z,21.2
2022-10-17T19:24:43.481Z,21.2
2022-10-17T19:30:25.845Z,21.1
2022-10-17T19:36:04.251Z,21.2
2022-10-17T19:42:04.298Z,20.6
2022-10-17T19:47:40.042Z,18.5
2022-10-17T19:53:17.930Z,18.3
2022-10-17T19:59:17.746Z,18.3
2022-10-17T20:05:00.071Z,17.8
2022-10-17T20:11:03.689Z,17.7
2022-10-17T20:16:54.333Z,17.6
2022-10-17T20:22:30.337Z,17.8
2022-10-17T20:28:07.501Z,17.9
2022-10-17T20:33:43.462Z,17.8
2022-10-17T20:39:27.327Z,17.8
2022-10-17T20:45:12.004Z,17.7
2022-10-17T20:50:52.134Z,17.8
2022-10-17T20:56:49.192Z,17.8
2022-10-17T21:02:43.094Z,17.9
2022-10-17T21:08:18.582Z,18.2
2022-10-17T21:13:53.729Z,18.6
2022-10-17T21:19:28.865Z,18.7
2022-10-17T21:25:04.703Z,18.8
2022-10-17T21:30:39.666Z,18.8
2022-10-17T21:36:15.886Z,18.9
2022-10-17T21:42:12.682Z,18.9
2022-10-17T21:48:01.136Z,18.9
2022-10-17T21:53:48.573Z,19
2022-10-17T21:59:23.418Z,19
2022-10-17T22:04:58.353Z,19
2022-10-17T22:10:33.214Z,19
2022-10-17T22:16:08.285Z,19
2022-10-17T22:21:43.174Z,19
2022-10-17T22:27:18.617Z,19
2022-10-17T22:33:03.197Z,19
2022-10-17T22:38:38.166Z,19
2022-10-17T22:44:13.163Z,18.9
2022-10-17T22:49:49.246Z,18.9
2022-10-17T22:55:24.083Z,18.8
2022-10-17T23:00:59.239Z,18.8
2022-10-17T23:06:34.574Z,18.9
2022-10-17T23:12:10.060Z,18.9
2022-10-17T23:17:44.877Z,18.9
2022-10-17T23:23:19.522Z,18.8
2022-10-17T23:28:54.683Z,18.7
2022-10-17T23:34:30.687Z,18.7
2022-10-17T23:40:05.494Z,18.6
2022-10-17T23:51:16.279Z,18.6
2022-10-17T23:56:51.321Z,18.6
